sensor_id;sensor_type;location;lat;lon;timestamp;temperature;humidity
63260;DHT22;49390;51.380;0.098;2023-10-08T00:01:18;17.80;99.90
63260;DHT22;49390;51.380;0.098;2023-10-08T00:03:52;17.80;99.90
63260;DHT22;49390;51.380;0.098;2023-10-08T00:06:26;17.80;99.90
63260;DHT22;49390;51.380;0.098;2023-10-08T00:08:56;17.80;99.90
63260;DHT22;49390;51.380;0.098;2023-10-08T00:11:38;17.80;99.90
63260;DHT22;49390;51.380;0.098;2023-10-08T00:14:07;17.80;99.90
63260;DHT22;49390;51.380;0.098;2023-10-08T00:16:38;17.80;99.90
63260;DHT22;49390;51.380;0.098;2023-10-08T00:19:07;17.80;99.90
63260;DHT22;49390;51.380;0.098;2023-10-08T00:21:37;17.80;99.90
63260;DHT22;49390;51.380;0.098;2023-10-08T00:24:06;17.70;99.90
63260;DHT22;49390;51.380;0.098;2023-10-08T00:26:35;17.80;99.90
63260;DHT22;49390;51.380;0.098;2023-10-08T00:29:08;17.70;99.90
63260;DHT22;49390;51.380;0.098;2023-10-08T00:32:03;17.80;99.90
63260;DHT22;49390;51.380;0.098;2023-10-08T00:34:42;17.70;99.90
63260;DHT22;49390;51.380;0.098;2023-10-08T00:37:11;17.70;99.90
63260;DHT22;49390;51.380;0.098;2023-10-08T00:39:42;17.70;99.90
63260;DHT22;49390;51.380;0.098;2023-10-08T00:42:10;17.70;99.90
63260;DHT22;49390;51.380;0.098;2023-10-08T00:44:41;17.60;99.90
63260;DHT22;49390;51.380;0.098;2023-10-08T00:47:19;17.60;99.90
63260;DHT22;49390;51.380;0.098;2023-10-08T00:49:53;17.60;99.90
63260;DHT22;49390;51.380;0.098;2023-10-08T00:52:37;17.60;99.90
63260;DHT22;49390;51.380;0.098;2023-10-08T00:55:09;17.50;99.90
63260;DHT22;49390;51.380;0.098;2023-10-08T00:57:43;17.60;99.90
63260;DHT22;49390;51.380;0.098;2023-10-08T01:00:15;17.50;99.90
63260;DHT22;49390;51.380;0.098;2023-10-08T01:02:49;17.50;99.90
63260;DHT22;49390;51.380;0.098;2023-10-08T01:05:23;17.50;99.90
63260;DHT22;49390;51.380;0.098;2023-10-08T01:07:56;17.50;99.90
63260;DHT22;49390;51.380;0.098;2023-10-08T01:10:26;17.50;99.90
63260;DHT22;49390;51.380;0.098;2023-10-08T01:12:54;17.50;99.90
63260;DHT22;49390;51.380;0.098;2023-10-08T01:15:22;17.50;99.90
63260;DHT22;49390;51.380;0.098;2023-10-08T01:17:57;17.40;99.90
63260;DHT22;49390;51.380;0.098;2023-10-08T01:20:29;17.40;99.90
63260;DHT22;49390;51.380;0.098;2023-10-08T01:23:11;17.50;99.90
63260;DHT22;49390;51.380;0.098;2023-10-08T01:25:44;17.40;99.90
63260;DHT22;49390;51.380;0.098;2023-10-08T01:28:21;17.40;99.90
63260;DHT22;49390;51.380;0.098;2023-10-08T01:31:00;17.40;99.90
63260;DHT22;49390;51.380;0.098;2023-10-08T01:33:28;17.40;99.90
63260;DHT22;49390;51.380;0.098;2023-10-08T01:35:59;17.40;99.90
63260;DHT22;49390;51.380;0.098;2023-10-08T01:38:32;17.40;99.90
63260;DHT22;49390;51.380;0.098;2023-10-08T01:41:03;17.40;99.90
63260;DHT22;49390;51.380;0.098;2023-10-08T01:43:37;17.40;99.90
63260;DHT22;49390;51.380;0.098;2023-10-08T01:46:06;17.40;99.90
63260;DHT22;49390;51.380;0.098;2023-10-08T01:48:39;17.40;99.90
63260;DHT22;49390;51.380;0.098;2023-10-08T01:51:07;17.40;99.90
63260;DHT22;49390;51.380;0.098;2023-10-08T01:53:39;17.40;99.90
63260;DHT22;49390;51.380;0.098;2023-10-08T01:56:08;17.40;99.90
63260;DHT22;49390;51.380;0.098;2023-10-08T01:58:38;17.40;99.90
63260;DHT22;49390;51.380;0.098;2023-10-08T02:01:07;17.40;99.90
63260;DHT22;49390;51.380;0.098;2023-10-08T02:03:39;17.40;99.90
63260;DHT22;49390;51.380;0.098;2023-10-08T02:06:10;17.30;99.90
63260;DHT22;49390;51.380;0.098;2023-10-08T02:08:40;17.30;99.90
63260;DHT22;49390;51.380;0.098;2023-10-08T02:11:09;17.30;99.90
63260;DHT22;49390;51.380;0.098;2023-10-08T02:13:38;17.30;99.90
63260;DHT22;49390;51.380;0.098;2023-10-08T02:16:06;17.30;99.90
63260;DHT22;49390;51.380;0.098;2023-10-08T02:18:35;17.30;99.90
63260;DHT22;49390;51.380;0.098;2023-10-08T02:21:03;17.20;99.90
63260;DHT22;49390;51.380;0.098;2023-10-08T02:23:33;17.20;99.90
63260;DHT22;49390;51.380;0.098;2023-10-08T02:26:03;17.20;99.90
63260;DHT22;49390;51.380;0.098;2023-10-08T02:28:30;17.20;99.90
63260;DHT22;49390;51.380;0.098;2023-10-08T02:30:59;17.20;99.90
63260;DHT22;49390;51.380;0.098;2023-10-08T02:33:27;17.10;99.90
63260;DHT22;49390;51.380;0.098;2023-10-08T02:35:55;17.10;99.90
63260;DHT22;49390;51.380;0.098;2023-10-08T02:38:23;17.10;99.90
63260;DHT22;49390;51.380;0.098;2023-10-08T02:40:51;17.10;99.90
63260;DHT22;49390;51.380;0.098;2023-10-08T02:43:24;17.10;99.90
63260;DHT22;49390;51.380;0.098;2023-10-08T02:45:52;17.10;99.90
63260;DHT22;49390;51.380;0.098;2023-10-08T02:48:21;17.10;99.90
63260;DHT22;49390;51.380;0.098;2023-10-08T02:50:49;17.10;99.90
63260;DHT22;49390;51.380;0.098;2023-10-08T02:53:20;17.10;99.90
63260;DHT22;49390;51.380;0.098;2023-10-08T02:55:53;17.10;99.90
63260;DHT22;49390;51.380;0.098;2023-10-08T02:58:21;17.10;99.90
63260;DHT22;49390;51.380;0.098;2023-10-08T03:00:49;17.10;99.90
63260;DHT22;49390;51.380;0.098;2023-10-08T03:03:18;17.10;99.90
63260;DHT22;49390;51.380;0.098;2023-10-08T03:05:49;17.00;99.90
63260;DHT22;49390;51.380;0.098;2023-10-08T03:08:19;17.10;99.90
63260;DHT22;49390;51.380;0.098;2023-10-08T03:10:50;17.00;99.90
63260;DHT22;49390;51.380;0.098;2023-10-08T03:13:30;17.00;99.90
63260;DHT22;49390;51.380;0.098;2023-10-08T03:15:59;17.00;99.90
63260;DHT22;49390;51.380;0.098;2023-10-08T03:18:36;16.90;99.90
63260;DHT22;49390;51.380;0.098;2023-10-08T03:21:06;16.90;99.90
63260;DHT22;49390;51.380;0.098;2023-10-08T03:23:52;16.90;99.90
63260;DHT22;49390;51.380;0.098;2023-10-08T03:26:21;16.80;99.90
63260;DHT22;49390;51.380;0.098;2023-10-08T03:29:03;16.80;99.90
63260;DHT22;49390;51.380;0.098;2023-10-08T03:31:37;16.70;99.90
63260;DHT22;49390;51.380;0.098;2023-10-08T03:34:18;16.70;99.90
63260;DHT22;49390;51.380;0.098;2023-10-08T03:36:48;16.60;99.90
63260;DHT22;49390;51.380;0.098;2023-10-08T03:39:18;16.60;99.90
63260;DHT22;49390;51.380;0.098;2023-10-08T03:41:49;16.60;99.90
63260;DHT22;49390;51.380;0.098;2023-10-08T03:44:34;16.60;99.90
63260;DHT22;49390;51.380;0.098;2023-10-08T03:47:05;16.50;99.90
63260;DHT22;49390;51.380;0.098;2023-10-08T03:49:39;16.50;99.90
63260;DHT22;49390;51.380;0.098;2023-10-08T03:52:18;16.40;99.90
63260;DHT22;49390;51.380;0.098;2023-10-08T03:54:51;16.40;99.90
63260;DHT22;49390;51.380;0.098;2023-10-08T03:57:41;16.40;99.90
63260;DHT22;49390;51.380;0.098;2023-10-08T04:00:11;16.30;99.90
63260;DHT22;49390;51.380;0.098;2023-10-08T04:02:46;16.30;99.90
63260;DHT22;49390;51.380;0.098;2023-10-08T04:05:22;16.30;99.90
63260;DHT22;49390;51.380;0.098;2023-10-08T04:08:08;16.20;99.90
63260;DHT22;49390;51.380;0.098;2023-10-08T04:10:47;16.20;99.90
63260;DHT22;49390;51.380;0.098;2023-10-08T04:13:15;16.10;99.90
63260;DHT22;49390;51.380;0.098;2023-10-08T04:15:44;16.10;99.90
63260;DHT22;49390;51.380;0.098;2023-10-08T04:18:12;16.10;99.90
63260;DHT22;49390;51.380;0.098;2023-10-08T04:20:41;16.00;99.90
63260;DHT22;49390;51.380;0.098;2023-10-08T04:23:28;16.00;99.90
63260;DHT22;49390;51.380;0.098;2023-10-08T04:25:57;16.00;99.90
63260;DHT22;49390;51.380;0.098;2023-10-08T04:28:27;16.00;99.90
63260;DHT22;49390;51.380;0.098;2023-10-08T04:31:02;16.00;99.90
63260;DHT22;49390;51.380;0.098;2023-10-08T04:33:44;15.90;99.90
63260;DHT22;49390;51.380;0.098;2023-10-08T04:36:12;15.90;99.90
63260;DHT22;49390;51.380;0.098;2023-10-08T04:38:47;15.90;99.90
63260;DHT22;49390;51.380;0.098;2023-10-08T04:41:16;15.90;99.90
63260;DHT22;49390;51.380;0.098;2023-10-08T04:43:47;15.90;99.90
63260;DHT22;49390;51.380;0.098;2023-10-08T04:46:17;15.90;99.90
63260;DHT22;49390;51.380;0.098;2023-10-08T04:49:07;16.00;99.90
63260;DHT22;49390;51.380;0.098;2023-10-08T04:51:47;16.00;99.90
63260;DHT22;49390;51.380;0.098;2023-10-08T04:54:17;15.90;99.90
63260;DHT22;49390;51.380;0.098;2023-10-08T04:56:45;16.00;99.90
63260;DHT22;49390;51.380;0.098;2023-10-08T04:59:13;16.00;99.90
63260;DHT22;49390;51.380;0.098;2023-10-08T05:01:41;15.90;99.90
63260;DHT22;49390;51.380;0.098;2023-10-08T05:04:16;15.90;99.90
63260;DHT22;49390;51.380;0.098;2023-10-08T05:07:00;15.90;99.90
63260;DHT22;49390;51.380;0.098;2023-10-08T05:09:29;15.90;99.90
63260;DHT22;49390;51.380;0.098;2023-10-08T05:12:17;15.90;99.90
63260;DHT22;49390;51.380;0.098;2023-10-08T05:15:01;15.80;99.90
63260;DHT22;49390;51.380;0.098;2023-10-08T05:17:45;15.80;99.90
63260;DHT22;49390;51.380;0.098;2023-10-08T05:20:20;15.90;99.90
63260;DHT22;49390;51.380;0.098;2023-10-08T05:23:09;15.90;99.90
63260;DHT22;49390;51.380;0.098;2023-10-08T05:25:53;15.90;99.90
63260;DHT22;49390;51.380;0.098;2023-10-08T05:28:35;15.80;99.90
63260;DHT22;49390;51.380;0.098;2023-10-08T05:31:08;15.80;99.90
63260;DHT22;49390;51.380;0.098;2023-10-08T05:33:49;15.80;99.90
63260;DHT22;49390;51.380;0.098;2023-10-08T05:36:37;15.90;99.90
63260;DHT22;49390;51.380;0.098;2023-10-08T05:39:24;15.80;99.90
63260;DHT22;49390;51.380;0.098;2023-10-08T05:41:52;15.80;99.90
63260;DHT22;49390;51.380;0.098;2023-10-08T05:44:22;15.80;99.90
63260;DHT22;49390;51.380;0.098;2023-10-08T05:46:50;15.80;99.90
63260;DHT22;49390;51.380;0.098;2023-10-08T05:49:22;15.80;99.90
63260;DHT22;49390;51.380;0.098;2023-10-08T05:52:00;15.80;99.90
63260;DHT22;49390;51.380;0.098;2023-10-08T05:54:32;15.70;99.90
63260;DHT22;49390;51.380;0.098;2023-10-08T05:57:08;15.70;99.90
63260;DHT22;49390;51.380;0.098;2023-10-08T06:01:54;15.60;99.90
63260;DHT22;49390;51.380;0.098;2023-10-08T06:04:33;15.60;99.90
63260;DHT22;49390;51.380;0.098;2023-10-08T06:07:21;15.50;99.90
63260;DHT22;49390;51.380;0.098;2023-10-08T06:10:01;15.50;99.90
63260;DHT22;49390;51.380;0.098;2023-10-08T06:12:32;15.50;99.90
63260;DHT22;49390;51.380;0.098;2023-10-08T06:15:13;15.50;99.90
63260;DHT22;49390;51.380;0.098;2023-10-08T06:17:41;15.40;99.90
63260;DHT22;49390;51.380;0.098;2023-10-08T06:20:26;15.50;99.90
63260;DHT22;49390;51.380;0.098;2023-10-08T06:22:55;15.50;99.90
63260;DHT22;49390;51.380;0.098;2023-10-08T06:25:29;15.50;99.90
63260;DHT22;49390;51.380;0.098;2023-10-08T06:27:58;15.50;99.90
63260;DHT22;49390;51.380;0.098;2023-10-08T06:30:27;15.50;99.90
63260;DHT22;49390;51.380;0.098;2023-10-08T06:33:03;15.50;99.90
63260;DHT22;49390;51.380;0.098;2023-10-08T06:35:32;15.50;99.90
63260;DHT22;49390;51.380;0.098;2023-10-08T06:38:01;15.50;99.90
63260;DHT22;49390;51.380;0.098;2023-10-08T06:40:36;15.60;99.90
63260;DHT22;49390;51.380;0.098;2023-10-08T06:43:05;15.60;99.90
63260;DHT22;49390;51.380;0.098;2023-10-08T06:45:50;15.60;99.90
63260;DHT22;49390;51.380;0.098;2023-10-08T06:48:21;15.60;99.90
63260;DHT22;49390;51.380;0.098;2023-10-08T06:50:52;15.60;99.90
63260;DHT22;49390;51.380;0.098;2023-10-08T06:53:33;15.70;99.90
63260;DHT22;49390;51.380;0.098;2023-10-08T06:56:01;15.60;99.90
63260;DHT22;49390;51.380;0.098;2023-10-08T06:58:32;15.70;99.90
63260;DHT22;49390;51.380;0.098;2023-10-08T07:01:01;15.70;99.90
63260;DHT22;49390;51.380;0.098;2023-10-08T07:03:33;15.70;99.90
63260;DHT22;49390;51.380;0.098;2023-10-08T07:06:02;15.70;99.90
63260;DHT22;49390;51.380;0.098;2023-10-08T07:08:33;15.70;99.90
63260;DHT22;49390;51.380;0.098;2023-10-08T07:11:03;15.70;99.90
63260;DHT22;49390;51.380;0.098;2023-10-08T07:13:39;15.60;99.90
63260;DHT22;49390;51.380;0.098;2023-10-08T07:16:10;15.70;99.90
63260;DHT22;49390;51.380;0.098;2023-10-08T07:18:39;15.70;99.90
63260;DHT22;49390;51.380;0.098;2023-10-08T07:21:07;15.70;99.90
63260;DHT22;49390;51.380;0.098;2023-10-08T07:23:41;15.80;99.90
63260;DHT22;49390;51.380;0.098;2023-10-08T07:26:28;15.90;99.90
63260;DHT22;49390;51.380;0.098;2023-10-08T07:29:07;15.90;99.90
63260;DHT22;49390;51.380;0.098;2023-10-08T07:31:38;16.00;99.90
63260;DHT22;49390;51.380;0.098;2023-10-08T07:34:10;16.10;99.90
63260;DHT22;49390;51.380;0.098;2023-10-08T07:36:47;16.10;99.90
63260;DHT22;49390;51.380;0.098;2023-10-08T07:39:16;16.20;99.90
63260;DHT22;49390;51.380;0.098;2023-10-08T07:42:06;16.20;99.90
63260;DHT22;49390;51.380;0.098;2023-10-08T07:44:35;16.30;99.90
63260;DHT22;49390;51.380;0.098;2023-10-08T07:47:06;16.40;99.90
63260;DHT22;49390;51.380;0.098;2023-10-08T07:49:41;16.40;99.90
63260;DHT22;49390;51.380;0.098;2023-10-08T07:52:13;16.50;99.90
63260;DHT22;49390;51.380;0.098;2023-10-08T07:54:44;16.60;99.90
63260;DHT22;49390;51.380;0.098;2023-10-08T07:57:13;16.70;99.90
63260;DHT22;49390;51.380;0.098;2023-10-08T07:59:45;16.90;99.90
63260;DHT22;49390;51.380;0.098;2023-10-08T08:02:19;17.00;99.90
63260;DHT22;49390;51.380;0.098;2023-10-08T08:04:51;17.10;99.90
63260;DHT22;49390;51.380;0.098;2023-10-08T08:07:59;17.30;99.90
63260;DHT22;49390;51.380;0.098;2023-10-08T08:10:36;17.40;99.90
63260;DHT22;49390;51.380;0.098;2023-10-08T08:13:04;17.50;99.90
63260;DHT22;49390;51.380;0.098;2023-10-08T08:15:37;17.60;99.90
63260;DHT22;49390;51.380;0.098;2023-10-08T08:18:16;17.70;99.90
63260;DHT22;49390;51.380;0.098;2023-10-08T08:20:50;17.80;99.90
63260;DHT22;49390;51.380;0.098;2023-10-08T08:23:18;17.90;99.90
63260;DHT22;49390;51.380;0.098;2023-10-08T08:25:49;18.00;99.90
63260;DHT22;49390;51.380;0.098;2023-10-08T08:28:34;18.10;99.90
63260;DHT22;49390;51.380;0.098;2023-10-08T08:31:03;18.10;99.90
63260;DHT22;49390;51.380;0.098;2023-10-08T08:33:41;18.20;99.90
63260;DHT22;49390;51.380;0.098;2023-10-08T08:36:24;18.30;99.90
63260;DHT22;49390;51.380;0.098;2023-10-08T08:38:52;18.50;99.90
63260;DHT22;49390;51.380;0.098;2023-10-08T08:41:20;18.60;99.90
63260;DHT22;49390;51.380;0.098;2023-10-08T08:43:52;18.80;99.90
63260;DHT22;49390;51.380;0.098;2023-10-08T08:46:32;19.00;99.90
63260;DHT22;49390;51.380;0.098;2023-10-08T08:49:04;19.30;99.90
63260;DHT22;49390;51.380;0.098;2023-10-08T08:51:37;19.50;99.90
63260;DHT22;49390;51.380;0.098;2023-10-08T08:54:05;19.70;99.90
63260;DHT22;49390;51.380;0.098;2023-10-08T08:56:38;20.00;99.90
63260;DHT22;49390;51.380;0.098;2023-10-08T08:59:06;20.20;99.90
63260;DHT22;49390;51.380;0.098;2023-10-08T09:01:40;20.40;99.90
63260;DHT22;49390;51.380;0.098;2023-10-08T09:04:09;20.60;99.90
63260;DHT22;49390;51.380;0.098;2023-10-08T09:06:39;20.70;99.20
63260;DHT22;49390;51.380;0.098;2023-10-08T09:09:07;20.80;97.90
63260;DHT22;49390;51.380;0.098;2023-10-08T09:11:52;21.00;96.30
63260;DHT22;49390;51.380;0.098;2023-10-08T09:14:22;21.10;94.80
63260;DHT22;49390;51.380;0.098;2023-10-08T09:16:52;21.10;94.10
63260;DHT22;49390;51.380;0.098;2023-10-08T09:19:20;21.20;93.40
63260;DHT22;49390;51.380;0.098;2023-10-08T09:22:05;21.20;92.60
63260;DHT22;49390;51.380;0.098;2023-10-08T09:24:38;21.20;92.30
63260;DHT22;49390;51.380;0.098;2023-10-08T09:27:07;21.30;92.10
63260;DHT22;49390;51.380;0.098;2023-10-08T09:29:36;21.30;91.50
63260;DHT22;49390;51.380;0.098;2023-10-08T09:32:11;21.30;91.00
63260;DHT22;49390;51.380;0.098;2023-10-08T09:34:42;21.30;90.60
63260;DHT22;49390;51.380;0.098;2023-10-08T09:37:11;21.40;90.30
63260;DHT22;49390;51.380;0.098;2023-10-08T09:39:41;21.40;89.90
63260;DHT22;49390;51.380;0.098;2023-10-08T09:42:13;21.40;89.60
63260;DHT22;49390;51.380;0.098;2023-10-08T09:44:42;21.40;89.30
63260;DHT22;49390;51.380;0.098;2023-10-08T09:47:12;21.50;88.10
63260;DHT22;49390;51.380;0.098;2023-10-08T09:52:23;21.60;85.40
63260;DHT22;49390;51.380;0.098;2023-10-08T09:54:59;21.70;84.90
63260;DHT22;49390;51.380;0.098;2023-10-08T09:57:30;21.70;84.00
63260;DHT22;49390;51.380;0.098;2023-10-08T10:00:01;21.80;83.60
63260;DHT22;49390;51.380;0.098;2023-10-08T10:02:31;21.90;83.50
63260;DHT22;49390;51.380;0.098;2023-10-08T10:05:00;21.90;82.90
63260;DHT22;49390;51.380;0.098;2023-10-08T10:07:29;21.90;82.90
63260;DHT22;49390;51.380;0.098;2023-10-08T10:09:57;21.90;83.10
63260;DHT22;49390;51.380;0.098;2023-10-08T10:12:26;22.00;83.50
63260;DHT22;49390;51.380;0.098;2023-10-08T10:14:56;21.90;83.70
63260;DHT22;49390;51.380;0.098;2023-10-08T10:17:26;22.00;83.60
63260;DHT22;49390;51.380;0.098;2023-10-08T10:20:12;22.00;83.20
63260;DHT22;49390;51.380;0.098;2023-10-08T10:22:45;22.10;82.60
63260;DHT22;49390;51.380;0.098;2023-10-08T10:25:16;22.20;81.70
63260;DHT22;49390;51.380;0.098;2023-10-08T10:30:26;22.30;80.50
63260;DHT22;49390;51.380;0.098;2023-10-08T10:32:59;22.30;80.40
63260;DHT22;49390;51.380;0.098;2023-10-08T10:35:28;22.40;80.00
63260;DHT22;49390;51.380;0.098;2023-10-08T10:37:56;22.50;79.30
63260;DHT22;49390;51.380;0.098;2023-10-08T10:40:31;22.60;78.10
63260;DHT22;49390;51.380;0.098;2023-10-08T10:43:09;22.70;76.80
63260;DHT22;49390;51.380;0.098;2023-10-08T10:45:48;22.80;76.60
63260;DHT22;49390;51.380;0.098;2023-10-08T10:48:16;22.90;75.10
63260;DHT22;49390;51.380;0.098;2023-10-08T10:50:48;22.90;74.60
63260;DHT22;49390;51.380;0.098;2023-10-08T10:53:38;23.00;74.10
63260;DHT22;49390;51.380;0.098;2023-10-08T10:56:14;23.10;73.50
63260;DHT22;49390;51.380;0.098;2023-10-08T10:59:02;23.10;73.00
63260;DHT22;49390;51.380;0.098;2023-10-08T11:01:50;23.20;72.80
63260;DHT22;49390;51.380;0.098;2023-10-08T11:04:34;23.20;72.70
63260;DHT22;49390;51.380;0.098;2023-10-08T11:07:18;23.30;72.30
63260;DHT22;49390;51.380;0.098;2023-10-08T11:09:51;23.40;71.20
63260;DHT22;49390;51.380;0.098;2023-10-08T11:12:23;23.50;70.10
63260;DHT22;49390;51.380;0.098;2023-10-08T11:15:00;23.50;69.30
63260;DHT22;49390;51.380;0.098;2023-10-08T11:17:33;23.60;68.50
63260;DHT22;49390;51.380;0.098;2023-10-08T11:20:01;23.70;68.00
63260;DHT22;49390;51.380;0.098;2023-10-08T11:22:41;23.80;67.50
63260;DHT22;49390;51.380;0.098;2023-10-08T11:25:21;23.80;66.70
63260;DHT22;49390;51.380;0.098;2023-10-08T11:27:52;23.90;66.20
63260;DHT22;49390;51.380;0.098;2023-10-08T11:30:29;24.00;65.90
63260;DHT22;49390;51.380;0.098;2023-10-08T11:33:02;24.10;65.20
63260;DHT22;49390;51.380;0.098;2023-10-08T11:35:34;24.10;64.60
63260;DHT22;49390;51.380;0.098;2023-10-08T11:38:02;24.20;64.30
63260;DHT22;49390;51.380;0.098;2023-10-08T11:40:31;24.30;63.50
63260;DHT22;49390;51.380;0.098;2023-10-08T11:43:17;24.30;63.10
63260;DHT22;49390;51.380;0.098;2023-10-08T11:45:45;24.40;62.70
63260;DHT22;49390;51.380;0.098;2023-10-08T11:48:16;24.50;62.20
63260;DHT22;49390;51.380;0.098;2023-10-08T11:50:56;24.60;61.50
63260;DHT22;49390;51.380;0.098;2023-10-08T11:53:29;24.60;61.00
63260;DHT22;49390;51.380;0.098;2023-10-08T11:55:58;24.60;60.30
63260;DHT22;49390;51.380;0.098;2023-10-08T11:58:29;24.70;60.30
63260;DHT22;49390;51.380;0.098;2023-10-08T12:01:06;24.70;60.10
63260;DHT22;49390;51.380;0.098;2023-10-08T12:03:34;24.80;60.20
63260;DHT22;49390;51.380;0.098;2023-10-08T12:06:03;24.90;60.10
63260;DHT22;49390;51.380;0.098;2023-10-08T12:08:33;25.00;60.10
63260;DHT22;49390;51.380;0.098;2023-10-08T12:11:07;25.00;59.60
63260;DHT22;49390;51.380;0.098;2023-10-08T12:13:40;25.00;59.40
63260;DHT22;49390;51.380;0.098;2023-10-08T12:16:15;25.00;59.20
63260;DHT22;49390;51.380;0.098;2023-10-08T12:18:49;24.90;58.90
63260;DHT22;49390;51.380;0.098;2023-10-08T12:21:24;24.90;58.60
63260;DHT22;49390;51.380;0.098;2023-10-08T12:23:58;24.90;58.80
63260;DHT22;49390;51.380;0.098;2023-10-08T12:26:26;24.90;58.50
63260;DHT22;49390;51.380;0.098;2023-10-08T12:28:54;24.90;58.40
63260;DHT22;49390;51.380;0.098;2023-10-08T12:31:23;25.00;58.30
63260;DHT22;49390;51.380;0.098;2023-10-08T12:33:52;25.00;58.00
63260;DHT22;49390;51.380;0.098;2023-10-08T12:36:25;25.00;57.80
63260;DHT22;49390;51.380;0.098;2023-10-08T12:38:54;25.00;57.50
63260;DHT22;49390;51.380;0.098;2023-10-08T12:41:26;25.10;57.20
63260;DHT22;49390;51.380;0.098;2023-10-08T12:43:57;25.10;57.10
63260;DHT22;49390;51.380;0.098;2023-10-08T12:46:26;25.10;57.00
63260;DHT22;49390;51.380;0.098;2023-10-08T12:48:54;25.10;56.90
63260;DHT22;49390;51.380;0.098;2023-10-08T12:51:25;25.10;56.80
63260;DHT22;49390;51.380;0.098;2023-10-08T12:53:54;25.10;56.70
63260;DHT22;49390;51.380;0.098;2023-10-08T12:56:35;25.20;56.50
63260;DHT22;49390;51.380;0.098;2023-10-08T12:59:16;25.20;56.50
63260;DHT22;49390;51.380;0.098;2023-10-08T13:01:53;25.20;56.30
63260;DHT22;49390;51.380;0.098;2023-10-08T13:04:24;25.20;55.90
63260;DHT22;49390;51.380;0.098;2023-10-08T13:07:03;25.30;56.10
63260;DHT22;49390;51.380;0.098;2023-10-08T13:09:31;25.30;55.90
63260;DHT22;49390;51.380;0.098;2023-10-08T13:12:00;25.20;55.90
63260;DHT22;49390;51.380;0.098;2023-10-08T13:14:30;25.20;55.90
63260;DHT22;49390;51.380;0.098;2023-10-08T13:16:58;25.20;56.00
63260;DHT22;49390;51.380;0.098;2023-10-08T13:19:26;25.20;56.10
63260;DHT22;49390;51.380;0.098;2023-10-08T13:21:54;25.30;56.30
63260;DHT22;49390;51.380;0.098;2023-10-08T13:24:22;25.30;56.30
63260;DHT22;49390;51.380;0.098;2023-10-08T13:26:52;25.30;56.40
63260;DHT22;49390;51.380;0.098;2023-10-08T13:29:20;25.30;56.50
63260;DHT22;49390;51.380;0.098;2023-10-08T13:31:49;25.40;56.40
63260;DHT22;49390;51.380;0.098;2023-10-08T13:34:20;25.40;56.30
63260;DHT22;49390;51.380;0.098;2023-10-08T13:36:52;25.40;56.20
63260;DHT22;49390;51.380;0.098;2023-10-08T13:39:20;25.50;56.20
63260;DHT22;49390;51.380;0.098;2023-10-08T13:41:49;25.50;56.30
63260;DHT22;49390;51.380;0.098;2023-10-08T13:44:20;25.50;56.40
63260;DHT22;49390;51.380;0.098;2023-10-08T13:46:58;25.50;56.10
63260;DHT22;49390;51.380;0.098;2023-10-08T13:49:28;25.60;56.10
63260;DHT22;49390;51.380;0.098;2023-10-08T13:52:00;25.60;55.80
63260;DHT22;49390;51.380;0.098;2023-10-08T13:54:28;25.50;55.80
63260;DHT22;49390;51.380;0.098;2023-10-08T13:56:58;25.50;55.80
63260;DHT22;49390;51.380;0.098;2023-10-08T13:59:29;25.50;55.90
63260;DHT22;49390;51.380;0.098;2023-10-08T14:02:00;25.50;56.20
63260;DHT22;49390;51.380;0.098;2023-10-08T14:04:30;25.50;56.30
63260;DHT22;49390;51.380;0.098;2023-10-08T14:06:59;25.50;56.40
63260;DHT22;49390;51.380;0.098;2023-10-08T14:09:27;25.50;56.30
63260;DHT22;49390;51.380;0.098;2023-10-08T14:12:06;25.50;56.40
63260;DHT22;49390;51.380;0.098;2023-10-08T14:14:35;25.50;56.50
63260;DHT22;49390;51.380;0.098;2023-10-08T14:17:04;25.50;56.70
63260;DHT22;49390;51.380;0.098;2023-10-08T14:19:38;25.50;56.70
63260;DHT22;49390;51.380;0.098;2023-10-08T14:22:20;25.50;56.40
63260;DHT22;49390;51.380;0.098;2023-10-08T14:24:52;25.60;56.50
63260;DHT22;49390;51.380;0.098;2023-10-08T14:27:27;25.60;56.50
63260;DHT22;49390;51.380;0.098;2023-10-08T14:30:08;25.60;56.40
63260;DHT22;49390;51.380;0.098;2023-10-08T14:32:43;25.60;56.50
63260;DHT22;49390;51.380;0.098;2023-10-08T14:35:14;25.60;56.70
63260;DHT22;49390;51.380;0.098;2023-10-08T14:38:01;25.50;57.00
63260;DHT22;49390;51.380;0.098;2023-10-08T14:40:47;25.50;57.30
63260;DHT22;49390;51.380;0.098;2023-10-08T14:43:37;25.40;57.50
63260;DHT22;49390;51.380;0.098;2023-10-08T14:46:05;25.40;57.80
63260;DHT22;49390;51.380;0.098;2023-10-08T14:48:37;25.40;58.00
63260;DHT22;49390;51.380;0.098;2023-10-08T14:51:08;25.40;58.00
63260;DHT22;49390;51.380;0.098;2023-10-08T14:53:44;25.40;58.80
63260;DHT22;49390;51.380;0.098;2023-10-08T14:56:12;25.30;57.90
63260;DHT22;49390;51.380;0.098;2023-10-08T14:58:44;25.40;58.00
63260;DHT22;49390;51.380;0.098;2023-10-08T15:01:12;25.30;58.70
63260;DHT22;49390;51.380;0.098;2023-10-08T15:03:41;25.40;57.70
63260;DHT22;49390;51.380;0.098;2023-10-08T15:06:09;25.30;57.50
63260;DHT22;49390;51.380;0.098;2023-10-08T15:08:39;25.30;57.00
63260;DHT22;49390;51.380;0.098;2023-10-08T15:11:07;25.20;56.40
63260;DHT22;49390;51.380;0.098;2023-10-08T15:13:38;25.20;56.60
63260;DHT22;49390;51.380;0.098;2023-10-08T15:16:06;25.10;56.70
63260;DHT22;49390;51.380;0.098;2023-10-08T15:18:36;25.10;57.70
63260;DHT22;49390;51.380;0.098;2023-10-08T15:21:10;25.10;57.00
63260;DHT22;49390;51.380;0.098;2023-10-08T15:23:39;25.10;57.20
63260;DHT22;49390;51.380;0.098;2023-10-08T15:26:07;25.00;57.30
63260;DHT22;49390;51.380;0.098;2023-10-08T15:28:35;25.00;57.40
63260;DHT22;49390;51.380;0.098;2023-10-08T15:31:04;24.90;57.60
63260;DHT22;49390;51.380;0.098;2023-10-08T15:33:32;24.90;57.90
63260;DHT22;49390;51.380;0.098;2023-10-08T15:36:00;24.80;58.10
63260;DHT22;49390;51.380;0.098;2023-10-08T15:38:29;24.80;58.50
63260;DHT22;49390;51.380;0.098;2023-10-08T15:40:58;24.80;58.90
63260;DHT22;49390;51.380;0.098;2023-10-08T15:43:28;24.70;59.10
63260;DHT22;49390;51.380;0.098;2023-10-08T15:45:56;24.70;59.30
63260;DHT22;49390;51.380;0.098;2023-10-08T15:48:24;24.60;59.50
63260;DHT22;49390;51.380;0.098;2023-10-08T15:50:53;24.60;59.80
63260;DHT22;49390;51.380;0.098;2023-10-08T15:53:22;24.60;60.00
63260;DHT22;49390;51.380;0.098;2023-10-08T15:55:51;24.50;60.30
63260;DHT22;49390;51.380;0.098;2023-10-08T15:58:19;24.40;60.40
63260;DHT22;49390;51.380;0.098;2023-10-08T16:00:47;24.30;60.50
63260;DHT22;49390;51.380;0.098;2023-10-08T16:03:15;24.30;60.80
63260;DHT22;49390;51.380;0.098;2023-10-08T16:05:46;24.30;61.00
63260;DHT22;49390;51.380;0.098;2023-10-08T16:08:16;24.30;61.20
63260;DHT22;49390;51.380;0.098;2023-10-08T16:10:44;24.20;61.10
63260;DHT22;49390;51.380;0.098;2023-10-08T16:13:13;24.10;61.20